Carbondale, IL

3:45 AM CDT on August 02, 2015 (GMT -0500)
Carbondale City Hall | | Change Station
CLOSE
Current Station
Personal Weather Station
Location: Carbondale, IL
Elevation: 430 ft
Nearby Weather Stations
Active Advisory: Flood Warning

Elev 430 ft 37.73 °N, 89.22 °W | Updated 16 minutes ago

Clear
Clear
74.1 °F
Feels Like 75 °F
N
0.0
Wind Variable Wind from SE
Gusts 2.0 mph

Today
High -- | Low -- °F
--% Chance of Precip.
Yesterday
High -- | Low -- °F
Precip. -- in
6:01 AM 8:04 PM
Waning Gibbous, 95% visible
Pressure 29.96 in
Visibility 10.0 miles
Clouds Clear
Heat Index 75 °F
Dew Point 66 °F
Humidity 76%
Rainfall 0.00 in
Snow Depth Not available.
UV 0 out of 12
Pollen 7.10 out of 12
Air Quality Not available.
Flu Activity Not available.
METAR KMDH 020752Z AUTO 00000KT 10SM CLR 21/19 A2997 RMK AO2 SLP145 T02110194

More Conditions Fewer Conditions

Pressure 29.96 in
Visibility 10.0 miles
Clouds Clear
Heat Index 75 °F
Dew Point 66 °F
Humidity 76%
Rainfall 0.00 in
Snow Depth Not available.
UV 0 out of 12
Pollen 7.10 out of 12
Air Quality Not available.
Flu Activity Not available.
METAR KMDH 020752Z AUTO 00000KT 10SM CLR 21/19 A2997 RMK AO2 SLP145 T02110194

More Conditions Fewer Conditions

10-Day Weather Forecast

×

Almanac

Astronomy

Aug. 02, 2015 Rise Set
Actual Time
Civil Twilight
Nautical Twilight
Astronomical Twilight
Moon
Length of Visible Light
Length of Day
Tomorrow will be .
, % of the Moon is Illuminated

Today's Extremes

State Highs State Lows

Community

WunderPhotos

Upload Photos

1,843,208 photos uploaded!

WunderBlogs® & News

Nearby

Air Quality

  Air Quality AQ Index Pollutant
Not available.

Snow Depth

Station Depth Elevation

Earthquake Activity

City Distance Mag. Time & Date
Minimum magnitude displayed is 2.5.

Coastal Water Temperatures

Place Temperature

Stations

Nearby Weather Stations

Station Location Temp. Windchill Dew Point Humidity Wind Precip. Elev Updated Type
                   
Flood Warning
Statement as of 8:56 PM CDT on August 01, 2015

The Flood Warning continues for
the Mississippi River at Chester.
* At 8:30 PM Saturday the stage was 27.2 feet.
* Flood stage is 27.0 feet.
* Minor flooding is occurring.
* The river will fall below flood stage by early tomorrow.

                   Fld latest 7 a.M. Forecast
location stg obs stg 08/02 08/03 08/04 08/05 08/06

Mississippi River
Chester 27.0 27.19 26.9 26.0 25.5 24.8 23.9




Lat... Lon 3826 9043 3826 9030 3769 8935 3769 8959
      3787 9003